sensor_id;sensor_type;location;lat;lon;timestamp;P1;durP1;ratioP1;P2;durP2;ratioP2
74465;SDS011;62916;50.044;15.938;2023-08-17T00:00:50;4.30;;;3.90;;
74465;SDS011;62916;50.044;15.938;2023-08-17T00:03:21;4.20;;;3.80;;
74465;SDS011;62916;50.044;15.938;2023-08-17T00:05:52;4.20;;;3.80;;
74465;SDS011;62916;50.044;15.938;2023-08-17T00:08:23;4.00;;;3.70;;
74465;SDS011;62916;50.044;15.938;2023-08-17T00:10:54;4.10;;;3.70;;
74465;SDS011;62916;50.044;15.938;2023-08-17T00:13:25;3.80;;;3.50;;
74465;SDS011;62916;50.044;15.938;2023-08-17T00:15:56;4.20;;;3.80;;
74465;SDS011;62916;50.044;15.938;2023-08-17T00:18:27;4.50;;;3.60;;
74465;SDS011;62916;50.044;15.938;2023-08-17T00:20:57;3.80;;;3.50;;
74465;SDS011;62916;50.044;15.938;2023-08-17T00:23:28;4.10;;;3.70;;
74465;SDS011;62916;50.044;15.938;2023-08-17T00:25:59;3.90;;;3.20;;
74465;SDS011;62916;50.044;15.938;2023-08-17T00:28:30;3.60;;;3.00;;
74465;SDS011;62916;50.044;15.938;2023-08-17T00:31:01;4.50;;;3.30;;
74465;SDS011;62916;50.044;15.938;2023-08-17T00:33:32;3.50;;;3.20;;
74465;SDS011;62916;50.044;15.938;2023-08-17T00:36:03;3.70;;;3.00;;
74465;SDS011;62916;50.044;15.938;2023-08-17T00:38:34;3.20;;;2.90;;
74465;SDS011;62916;50.044;15.938;2023-08-17T00:41:05;3.50;;;3.10;;
74465;SDS011;62916;50.044;15.938;2023-08-17T00:43:36;3.70;;;3.20;;
74465;SDS011;62916;50.044;15.938;2023-08-17T00:46:07;4.10;;;3.20;;
74465;SDS011;62916;50.044;15.938;2023-08-17T00:48:39;4.60;;;3.50;;
74465;SDS011;62916;50.044;15.938;2023-08-17T00:51:11;3.70;;;3.00;;
74465;SDS011;62916;50.044;15.938;2023-08-17T00:53:43;3.40;;;3.10;;
74465;SDS011;62916;50.044;15.938;2023-08-17T00:56:14;4.00;;;3.40;;
74465;SDS011;62916;50.044;15.938;2023-08-17T00:58:45;3.60;;;3.30;;
74465;SDS011;62916;50.044;15.938;2023-08-17T01:01:18;5.30;;;3.00;;
74465;SDS011;62916;50.044;15.938;2023-08-17T01:03:50;3.40;;;3.10;;
74465;SDS011;62916;50.044;15.938;2023-08-17T01:06:21;4.80;;;3.50;;
74465;SDS011;62916;50.044;15.938;2023-08-17T01:08:52;3.90;;;3.40;;
74465;SDS011;62916;50.044;15.938;2023-08-17T01:11:24;3.90;;;3.40;;
74465;SDS011;62916;50.044;15.938;2023-08-17T01:14:02;4.20;;;3.50;;
74465;SDS011;62916;50.044;15.938;2023-08-17T01:16:40;4.50;;;3.40;;
74465;SDS011;62916;50.044;15.938;2023-08-17T01:19:27;4.90;;;4.10;;
74465;SDS011;62916;50.044;15.938;2023-08-17T01:22:00;5.80;;;3.80;;
74465;SDS011;62916;50.044;15.938;2023-08-17T01:24:33;4.10;;;3.70;;
74465;SDS011;62916;50.044;15.938;2023-08-17T01:27:04;4.80;;;3.50;;
74465;SDS011;62916;50.044;15.938;2023-08-17T01:29:35;4.40;;;3.60;;
74465;SDS011;62916;50.044;15.938;2023-08-17T01:32:09;5.70;;;3.50;;
74465;SDS011;62916;50.044;15.938;2023-08-17T01:34:47;5.50;;;3.70;;
74465;SDS011;62916;50.044;15.938;2023-08-17T01:37:23;4.60;;;4.20;;
74465;SDS011;62916;50.044;15.938;2023-08-17T01:39:57;4.70;;;4.20;;
74465;SDS011;62916;50.044;15.938;2023-08-17T01:42:29;4.80;;;4.30;;
74465;SDS011;62916;50.044;15.938;2023-08-17T01:45:00;6.00;;;4.30;;
74465;SDS011;62916;50.044;15.938;2023-08-17T01:47:32;4.80;;;4.40;;
74465;SDS011;62916;50.044;15.938;2023-08-17T01:50:04;5.90;;;4.70;;
74465;SDS011;62916;50.044;15.938;2023-08-17T01:52:36;5.10;;;4.60;;
74465;SDS011;62916;50.044;15.938;2023-08-17T01:55:07;5.60;;;5.10;;
74465;SDS011;62916;50.044;15.938;2023-08-17T01:57:38;5.50;;;5.00;;
74465;SDS011;62916;50.044;15.938;2023-08-17T02:00:10;5.00;;;4.40;;
74465;SDS011;62916;50.044;15.938;2023-08-17T02:02:42;4.30;;;3.80;;
74465;SDS011;62916;50.044;15.938;2023-08-17T02:05:13;4.40;;;4.00;;
74465;SDS011;62916;50.044;15.938;2023-08-17T02:07:44;5.40;;;4.60;;
74465;SDS011;62916;50.044;15.938;2023-08-17T02:10:15;4.40;;;4.00;;
74465;SDS011;62916;50.044;15.938;2023-08-17T02:12:46;4.90;;;4.40;;
74465;SDS011;62916;50.044;15.938;2023-08-17T02:15:21;4.50;;;4.10;;
74465;SDS011;62916;50.044;15.938;2023-08-17T02:17:52;4.80;;;3.60;;
74465;SDS011;62916;50.044;15.938;2023-08-17T02:20:23;4.90;;;4.30;;
74465;SDS011;62916;50.044;15.938;2023-08-17T02:22:54;4.80;;;4.30;;
74465;SDS011;62916;50.044;15.938;2023-08-17T02:25:25;5.50;;;4.20;;
74465;SDS011;62916;50.044;15.938;2023-08-17T02:28:01;5.10;;;4.00;;
74465;SDS011;62916;50.044;15.938;2023-08-17T02:30:33;4.90;;;4.50;;
74465;SDS011;62916;50.044;15.938;2023-08-17T02:33:04;4.90;;;4.00;;
74465;SDS011;62916;50.044;15.938;2023-08-17T02:35:35;4.60;;;4.20;;
74465;SDS011;62916;50.044;15.938;2023-08-17T02:38:06;5.80;;;4.20;;
74465;SDS011;62916;50.044;15.938;2023-08-17T02:40:37;5.00;;;4.20;;
74465;SDS011;62916;50.044;15.938;2023-08-17T02:43:08;6.60;;;4.40;;
74465;SDS011;62916;50.044;15.938;2023-08-17T02:45:39;5.60;;;3.90;;
74465;SDS011;62916;50.044;15.938;2023-08-17T02:48:10;4.40;;;4.00;;
74465;SDS011;62916;50.044;15.938;2023-08-17T02:50:41;4.80;;;3.90;;
74465;SDS011;62916;50.044;15.938;2023-08-17T02:53:12;4.80;;;3.60;;
74465;SDS011;62916;50.044;15.938;2023-08-17T02:55:42;4.20;;;3.60;;
74465;SDS011;62916;50.044;15.938;2023-08-17T02:58:13;4.80;;;3.80;;
74465;SDS011;62916;50.044;15.938;2023-08-17T03:00:44;5.20;;;4.20;;
74465;SDS011;62916;50.044;15.938;2023-08-17T03:03:16;4.20;;;3.70;;
74465;SDS011;62916;50.044;15.938;2023-08-17T03:05:47;4.40;;;3.60;;
74465;SDS011;62916;50.044;15.938;2023-08-17T03:08:18;4.60;;;3.60;;
74465;SDS011;62916;50.044;15.938;2023-08-17T03:10:49;4.30;;;3.90;;
74465;SDS011;62916;50.044;15.938;2023-08-17T03:13:19;4.40;;;4.00;;
74465;SDS011;62916;50.044;15.938;2023-08-17T03:15:50;5.10;;;4.30;;
74465;SDS011;62916;50.044;15.938;2023-08-17T03:18:21;5.90;;;4.40;;
74465;SDS011;62916;50.044;15.938;2023-08-17T03:20:52;4.60;;;4.00;;
74465;SDS011;62916;50.044;15.938;2023-08-17T03:23:23;5.10;;;4.10;;
74465;SDS011;62916;50.044;15.938;2023-08-17T03:25:54;4.70;;;4.30;;
74465;SDS011;62916;50.044;15.938;2023-08-17T03:28:26;4.80;;;4.40;;
74465;SDS011;62916;50.044;15.938;2023-08-17T03:30:57;6.80;;;4.50;;
74465;SDS011;62916;50.044;15.938;2023-08-17T03:33:28;5.00;;;4.50;;
74465;SDS011;62916;50.044;15.938;2023-08-17T03:36:00;6.70;;;4.50;;
74465;SDS011;62916;50.044;15.938;2023-08-17T03:38:32;4.90;;;4.40;;
74465;SDS011;62916;50.044;15.938;2023-08-17T03:41:03;8.30;;;4.40;;
74465;SDS011;62916;50.044;15.938;2023-08-17T03:43:33;6.00;;;4.60;;
74465;SDS011;62916;50.044;15.938;2023-08-17T03:46:05;7.10;;;4.80;;
74465;SDS011;62916;50.044;15.938;2023-08-17T03:48:36;6.10;;;4.30;;
74465;SDS011;62916;50.044;15.938;2023-08-17T03:51:07;6.10;;;4.30;;
74465;SDS011;62916;50.044;15.938;2023-08-17T03:53:38;4.40;;;4.00;;
74465;SDS011;62916;50.044;15.938;2023-08-17T03:56:09;5.20;;;4.40;;
74465;SDS011;62916;50.044;15.938;2023-08-17T03:58:40;5.40;;;4.90;;
74465;SDS011;62916;50.044;15.938;2023-08-17T04:01:12;5.70;;;4.80;;
74465;SDS011;62916;50.044;15.938;2023-08-17T04:03:43;4.50;;;4.10;;
74465;SDS011;62916;50.044;15.938;2023-08-17T04:06:14;5.50;;;3.90;;
74465;SDS011;62916;50.044;15.938;2023-08-17T04:08:44;6.20;;;4.10;;
74465;SDS011;62916;50.044;15.938;2023-08-17T04:11:15;7.10;;;4.10;;
74465;SDS011;62916;50.044;15.938;2023-08-17T04:13:46;5.10;;;3.80;;
74465;SDS011;62916;50.044;15.938;2023-08-17T04:16:17;13.40;;;4.30;;
74465;SDS011;62916;50.044;15.938;2023-08-17T04:18:47;11.10;;;4.10;;
74465;SDS011;62916;50.044;15.938;2023-08-17T04:21:18;11.20;;;4.30;;
74465;SDS011;62916;50.044;15.938;2023-08-17T04:23:49;9.00;;;4.40;;
74465;SDS011;62916;50.044;15.938;2023-08-17T04:26:20;10.90;;;4.30;;
74465;SDS011;62916;50.044;15.938;2023-08-17T04:28:51;6.90;;;4.20;;
74465;SDS011;62916;50.044;15.938;2023-08-17T04:31:22;8.20;;;3.90;;
74465;SDS011;62916;50.044;15.938;2023-08-17T04:33:54;7.70;;;4.00;;
74465;SDS011;62916;50.044;15.938;2023-08-17T04:36:25;7.30;;;3.80;;
74465;SDS011;62916;50.044;15.938;2023-08-17T04:38:56;6.90;;;3.70;;
74465;SDS011;62916;50.044;15.938;2023-08-17T04:41:27;8.40;;;4.20;;
74465;SDS011;62916;50.044;15.938;2023-08-17T04:43:58;6.90;;;3.90;;
74465;SDS011;62916;50.044;15.938;2023-08-17T04:46:28;5.80;;;4.00;;
74465;SDS011;62916;50.044;15.938;2023-08-17T04:48:59;6.60;;;3.60;;
74465;SDS011;62916;50.044;15.938;2023-08-17T04:51:30;8.30;;;4.60;;
74465;SDS011;62916;50.044;15.938;2023-08-17T04:54:01;6.60;;;3.20;;
74465;SDS011;62916;50.044;15.938;2023-08-17T04:56:32;7.10;;;3.60;;
74465;SDS011;62916;50.044;15.938;2023-08-17T04:59:03;6.10;;;4.00;;
74465;SDS011;62916;50.044;15.938;2023-08-17T05:01:34;6.00;;;4.10;;
74465;SDS011;62916;50.044;15.938;2023-08-17T05:04:09;7.30;;;4.30;;
74465;SDS011;62916;50.044;15.938;2023-08-17T05:06:40;6.50;;;3.80;;
74465;SDS011;62916;50.044;15.938;2023-08-17T05:09:10;4.30;;;3.80;;
74465;SDS011;62916;50.044;15.938;2023-08-17T05:11:41;5.00;;;4.10;;
74465;SDS011;62916;50.044;15.938;2023-08-17T05:14:13;5.70;;;3.60;;
74465;SDS011;62916;50.044;15.938;2023-08-17T05:16:44;5.50;;;3.80;;
74465;SDS011;62916;50.044;15.938;2023-08-17T05:19:15;5.40;;;3.80;;
74465;SDS011;62916;50.044;15.938;2023-08-17T05:21:46;3.90;;;3.50;;
74465;SDS011;62916;50.044;15.938;2023-08-17T05:24:19;6.10;;;3.60;;
74465;SDS011;62916;50.044;15.938;2023-08-17T05:26:50;5.40;;;4.20;;
74465;SDS011;62916;50.044;15.938;2023-08-17T05:29:20;4.70;;;3.40;;
74465;SDS011;62916;50.044;15.938;2023-08-17T05:31:51;4.50;;;3.20;;
74465;SDS011;62916;50.044;15.938;2023-08-17T05:34:22;5.10;;;3.60;;
74465;SDS011;62916;50.044;15.938;2023-08-17T05:36:53;4.40;;;3.40;;
74465;SDS011;62916;50.044;15.938;2023-08-17T05:39:24;6.20;;;3.60;;
74465;SDS011;62916;50.044;15.938;2023-08-17T05:41:55;4.10;;;3.50;;
74465;SDS011;62916;50.044;15.938;2023-08-17T05:44:26;5.30;;;3.40;;
74465;SDS011;62916;50.044;15.938;2023-08-17T05:46:57;4.20;;;3.50;;
74465;SDS011;62916;50.044;15.938;2023-08-17T05:49:28;4.00;;;3.30;;
74465;SDS011;62916;50.044;15.938;2023-08-17T05:51:59;3.70;;;3.40;;
74465;SDS011;62916;50.044;15.938;2023-08-17T05:54:30;4.80;;;3.40;;
74465;SDS011;62916;50.044;15.938;2023-08-17T05:57:01;4.40;;;3.20;;
74465;SDS011;62916;50.044;15.938;2023-08-17T05:59:32;6.90;;;3.60;;
74465;SDS011;62916;50.044;15.938;2023-08-17T06:02:04;5.10;;;4.10;;
74465;SDS011;62916;50.044;15.938;2023-08-17T06:04:34;3.60;;;3.20;;
74465;SDS011;62916;50.044;15.938;2023-08-17T06:07:05;5.20;;;3.50;;
74465;SDS011;62916;50.044;15.938;2023-08-17T06:09:36;3.60;;;3.30;;
74465;SDS011;62916;50.044;15.938;2023-08-17T06:12:07;3.60;;;3.30;;
74465;SDS011;62916;50.044;15.938;2023-08-17T06:14:38;3.90;;;2.70;;
74465;SDS011;62916;50.044;15.938;2023-08-17T06:17:10;5.50;;;3.60;;
74465;SDS011;62916;50.044;15.938;2023-08-17T06:19:41;3.50;;;3.20;;
74465;SDS011;62916;50.044;15.938;2023-08-17T06:22:12;3.70;;;3.20;;
74465;SDS011;62916;50.044;15.938;2023-08-17T06:24:42;3.40;;;3.10;;
74465;SDS011;62916;50.044;15.938;2023-08-17T06:27:14;5.00;;;3.40;;
74465;SDS011;62916;50.044;15.938;2023-08-17T06:29:45;3.70;;;3.40;;
74465;SDS011;62916;50.044;15.938;2023-08-17T06:32:16;3.70;;;2.80;;
74465;SDS011;62916;50.044;15.938;2023-08-17T06:34:47;3.50;;;3.20;;
74465;SDS011;62916;50.044;15.938;2023-08-17T06:37:18;3.70;;;3.00;;
74465;SDS011;62916;50.044;15.938;2023-08-17T06:39:49;4.20;;;3.20;;
74465;SDS011;62916;50.044;15.938;2023-08-17T06:42:20;3.50;;;3.00;;
74465;SDS011;62916;50.044;15.938;2023-08-17T06:44:51;3.00;;;2.70;;
74465;SDS011;62916;50.044;15.938;2023-08-17T06:47:22;3.90;;;3.20;;
74465;SDS011;62916;50.044;15.938;2023-08-17T06:49:54;3.40;;;3.10;;
74465;SDS011;62916;50.044;15.938;2023-08-17T06:52:26;3.00;;;2.80;;
74465;SDS011;62916;50.044;15.938;2023-08-17T06:54:56;3.50;;;3.20;;
74465;SDS011;62916;50.044;15.938;2023-08-17T06:57:28;3.60;;;3.20;;
74465;SDS011;62916;50.044;15.938;2023-08-17T06:59:58;3.10;;;2.80;;
74465;SDS011;62916;50.044;15.938;2023-08-17T07:02:29;3.30;;;3.00;;
74465;SDS011;62916;50.044;15.938;2023-08-17T07:05:19;3.70;;;3.00;;
74465;SDS011;62916;50.044;15.938;2023-08-17T07:07:50;3.50;;;3.20;;
74465;SDS011;62916;50.044;15.938;2023-08-17T07:10:23;3.90;;;2.90;;
74465;SDS011;62916;50.044;15.938;2023-08-17T07:12:54;3.50;;;3.20;;
74465;SDS011;62916;50.044;15.938;2023-08-17T07:15:25;4.30;;;3.70;;
74465;SDS011;62916;50.044;15.938;2023-08-17T07:17:56;3.80;;;3.20;;
74465;SDS011;62916;50.044;15.938;2023-08-17T07:20:27;3.40;;;2.90;;
74465;SDS011;62916;50.044;15.938;2023-08-17T07:22:58;3.00;;;2.80;;
74465;SDS011;62916;50.044;15.938;2023-08-17T07:25:29;2.90;;;2.60;;
74465;SDS011;62916;50.044;15.938;2023-08-17T07:28:01;2.90;;;2.70;;
74465;SDS011;62916;50.044;15.938;2023-08-17T07:30:32;3.20;;;2.90;;
74465;SDS011;62916;50.044;15.938;2023-08-17T07:33:03;3.00;;;2.70;;
74465;SDS011;62916;50.044;15.938;2023-08-17T07:35:34;3.20;;;2.90;;
74465;SDS011;62916;50.044;15.938;2023-08-17T07:38:05;3.80;;;3.00;;
74465;SDS011;62916;50.044;15.938;2023-08-17T07:40:37;3.70;;;3.00;;
74465;SDS011;62916;50.044;15.938;2023-08-17T07:43:10;3.60;;;3.30;;
74465;SDS011;62916;50.044;15.938;2023-08-17T07:45:42;3.10;;;2.80;;
74465;SDS011;62916;50.044;15.938;2023-08-17T07:48:12;3.00;;;2.80;;
74465;SDS011;62916;50.044;15.938;2023-08-17T07:50:44;3.50;;;2.80;;
74465;SDS011;62916;50.044;15.938;2023-08-17T07:53:19;4.50;;;2.90;;
74465;SDS011;62916;50.044;15.938;2023-08-17T07:55:50;3.60;;;2.70;;
74465;SDS011;62916;50.044;15.938;2023-08-17T07:58:23;3.10;;;2.80;;
74465;SDS011;62916;50.044;15.938;2023-08-17T08:00:54;3.40;;;3.20;;
74465;SDS011;62916;50.044;15.938;2023-08-17T08:03:25;3.30;;;3.10;;
74465;SDS011;62916;50.044;15.938;2023-08-17T08:05:56;3.00;;;2.70;;
74465;SDS011;62916;50.044;15.938;2023-08-17T08:08:27;3.40;;;3.10;;
74465;SDS011;62916;50.044;15.938;2023-08-17T08:10:58;2.80;;;2.60;;
74465;SDS011;62916;50.044;15.938;2023-08-17T08:13:29;3.40;;;2.80;;
74465;SDS011;62916;50.044;15.938;2023-08-17T08:16:00;3.40;;;3.10;;
74465;SDS011;62916;50.044;15.938;2023-08-17T08:18:31;3.50;;;2.70;;
74465;SDS011;62916;50.044;15.938;2023-08-17T08:21:02;3.30;;;3.00;;
74465;SDS011;62916;50.044;15.938;2023-08-17T08:23:33;3.10;;;2.90;;
74465;SDS011;62916;50.044;15.938;2023-08-17T08:26:04;2.70;;;2.50;;
74465;SDS011;62916;50.044;15.938;2023-08-17T08:28:35;3.20;;;2.70;;
74465;SDS011;62916;50.044;15.938;2023-08-17T08:31:06;2.50;;;2.30;;
74465;SDS011;62916;50.044;15.938;2023-08-17T08:33:37;3.00;;;2.70;;
74465;SDS011;62916;50.044;15.938;2023-08-17T08:36:08;3.10;;;2.70;;
74465;SDS011;62916;50.044;15.938;2023-08-17T08:38:39;2.90;;;2.50;;
74465;SDS011;62916;50.044;15.938;2023-08-17T08:41:11;2.60;;;2.40;;
74465;SDS011;62916;50.044;15.938;2023-08-17T08:43:41;2.80;;;2.60;;
74465;SDS011;62916;50.044;15.938;2023-08-17T08:46:14;3.10;;;2.90;;
74465;SDS011;62916;50.044;15.938;2023-08-17T08:48:49;3.00;;;2.70;;
74465;SDS011;62916;50.044;15.938;2023-08-17T08:51:23;3.10;;;2.80;;
74465;SDS011;62916;50.044;15.938;2023-08-17T08:54:01;2.70;;;2.50;;
74465;SDS011;62916;50.044;15.938;2023-08-17T08:56:35;3.10;;;2.80;;
74465;SDS011;62916;50.044;15.938;2023-08-17T08:59:14;2.90;;;2.60;;
74465;SDS011;62916;50.044;15.938;2023-08-17T09:01:49;2.80;;;2.60;;
74465;SDS011;62916;50.044;15.938;2023-08-17T09:04:20;2.80;;;2.60;;
74465;SDS011;62916;50.044;15.938;2023-08-17T09:06:52;3.10;;;2.70;;
74465;SDS011;62916;50.044;15.938;2023-08-17T09:09:24;2.70;;;2.50;;
74465;SDS011;62916;50.044;15.938;2023-08-17T09:11:57;3.60;;;3.30;;
74465;SDS011;62916;50.044;15.938;2023-08-17T09:14:28;3.30;;;3.00;;
74465;SDS011;62916;50.044;15.938;2023-08-17T09:16:59;2.90;;;2.70;;
74465;SDS011;62916;50.044;15.938;2023-08-17T09:19:30;2.80;;;2.60;;
74465;SDS011;62916;50.044;15.938;2023-08-17T09:22:02;2.80;;;2.60;;
74465;SDS011;62916;50.044;15.938;2023-08-17T09:24:36;3.00;;;2.30;;
74465;SDS011;62916;50.044;15.938;2023-08-17T09:27:07;2.60;;;2.40;;
74465;SDS011;62916;50.044;15.938;2023-08-17T09:29:43;2.70;;;2.50;;
74465;SDS011;62916;50.044;15.938;2023-08-17T09:32:15;2.70;;;2.50;;
74465;SDS011;62916;50.044;15.938;2023-08-17T09:34:46;2.50;;;2.40;;
74465;SDS011;62916;50.044;15.938;2023-08-17T09:37:18;2.70;;;2.50;;
74465;SDS011;62916;50.044;15.938;2023-08-17T09:39:49;2.50;;;2.30;;
74465;SDS011;62916;50.044;15.938;2023-08-17T09:42:20;2.50;;;2.30;;
74465;SDS011;62916;50.044;15.938;2023-08-17T09:44:51;3.20;;;2.90;;
74465;SDS011;62916;50.044;15.938;2023-08-17T09:47:23;2.70;;;2.50;;
74465;SDS011;62916;50.044;15.938;2023-08-17T09:49:55;3.00;;;2.70;;
74465;SDS011;62916;50.044;15.938;2023-08-17T09:52:26;2.40;;;2.20;;
74465;SDS011;62916;50.044;15.938;2023-08-17T09:54:57;2.90;;;2.70;;
74465;SDS011;62916;50.044;15.938;2023-08-17T09:57:35;2.70;;;2.50;;
74465;SDS011;62916;50.044;15.938;2023-08-17T10:00:08;3.00;;;2.70;;
74465;SDS011;62916;50.044;15.938;2023-08-17T10:02:40;2.90;;;2.70;;
74465;SDS011;62916;50.044;15.938;2023-08-17T10:05:13;2.80;;;2.60;;
74465;SDS011;62916;50.044;15.938;2023-08-17T10:07:51;3.10;;;2.80;;
74465;SDS011;62916;50.044;15.938;2023-08-17T10:10:26;3.00;;;2.80;;
74465;SDS011;62916;50.044;15.938;2023-08-17T10:13:00;2.90;;;2.70;;
74465;SDS011;62916;50.044;15.938;2023-08-17T10:15:41;2.70;;;2.50;;
74465;SDS011;62916;50.044;15.938;2023-08-17T10:18:22;2.60;;;2.40;;
74465;SDS011;62916;50.044;15.938;2023-08-17T10:21:01;2.60;;;2.40;;
74465;SDS011;62916;50.044;15.938;2023-08-17T10:23:36;2.50;;;2.30;;
74465;SDS011;62916;50.044;15.938;2023-08-17T10:26:09;2.60;;;2.40;;
74465;SDS011;62916;50.044;15.938;2023-08-17T10:28:41;2.90;;;2.70;;
74465;SDS011;62916;50.044;15.938;2023-08-17T10:31:12;2.70;;;2.50;;
74465;SDS011;62916;50.044;15.938;2023-08-17T10:33:45;3.70;;;3.40;;
74465;SDS011;62916;50.044;15.938;2023-08-17T10:36:16;2.70;;;2.50;;
74465;SDS011;62916;50.044;15.938;2023-08-17T10:38:48;3.00;;;2.80;;
74465;SDS011;62916;50.044;15.938;2023-08-17T10:41:52;3.20;;;3.00;;
74465;SDS011;62916;50.044;15.938;2023-08-17T10:44:43;2.70;;;2.50;;
74465;SDS011;62916;50.044;15.938;2023-08-17T10:47:24;2.90;;;2.70;;
74465;SDS011;62916;50.044;15.938;2023-08-17T10:50:03;2.50;;;2.30;;
74465;SDS011;62916;50.044;15.938;2023-08-17T10:52:36;2.60;;;2.20;;
74465;SDS011;62916;50.044;15.938;2023-08-17T10:55:08;2.50;;;2.30;;
74465;SDS011;62916;50.044;15.938;2023-08-17T10:57:41;2.60;;;2.40;;
74465;SDS011;62916;50.044;15.938;2023-08-17T11:00:17;2.60;;;2.40;;
74465;SDS011;62916;50.044;15.938;2023-08-17T11:02:53;2.50;;;2.30;;
74465;SDS011;62916;50.044;15.938;2023-08-17T11:08:21;2.80;;;2.60;;
74465;SDS011;62916;50.044;15.938;2023-08-17T11:11:01;2.80;;;2.60;;
74465;SDS011;62916;50.044;15.938;2023-08-17T11:13:34;2.20;;;2.10;;
74465;SDS011;62916;50.044;15.938;2023-08-17T11:16:06;2.60;;;2.40;;
74465;SDS011;62916;50.044;15.938;2023-08-17T11:18:42;2.20;;;2.00;;
74465;SDS011;62916;50.044;15.938;2023-08-17T11:21:13;2.30;;;2.20;;
74465;SDS011;62916;50.044;15.938;2023-08-17T11:23:47;2.20;;;2.10;;
74465;SDS011;62916;50.044;15.938;2023-08-17T11:26:18;2.40;;;2.20;;
74465;SDS011;62916;50.044;15.938;2023-08-17T11:28:50;2.50;;;2.30;;
74465;SDS011;62916;50.044;15.938;2023-08-17T11:31:22;2.80;;;2.60;;
74465;SDS011;62916;50.044;15.938;2023-08-17T11:33:54;2.60;;;2.40;;
74465;SDS011;62916;50.044;15.938;2023-08-17T11:36:27;2.50;;;2.30;;
74465;SDS011;62916;50.044;15.938;2023-08-17T11:38:58;2.60;;;2.40;;
74465;SDS011;62916;50.044;15.938;2023-08-17T11:41:30;2.70;;;2.50;;
74465;SDS011;62916;50.044;15.938;2023-08-17T11:44:01;2.80;;;2.60;;
74465;SDS011;62916;50.044;15.938;2023-08-17T11:46:33;2.40;;;2.20;;
74465;SDS011;62916;50.044;15.938;2023-08-17T11:49:04;2.70;;;2.50;;
74465;SDS011;62916;50.044;15.938;2023-08-17T11:51:36;2.60;;;2.40;;
74465;SDS011;62916;50.044;15.938;2023-08-17T11:54:10;2.50;;;2.30;;
74465;SDS011;62916;50.044;15.938;2023-08-17T11:56:41;2.50;;;2.30;;
74465;SDS011;62916;50.044;15.938;2023-08-17T11:59:13;2.50;;;2.30;;
74465;SDS011;62916;50.044;15.938;2023-08-17T12:01:46;2.90;;;2.30;;
74465;SDS011;62916;50.044;15.938;2023-08-17T12:04:19;2.80;;;2.60;;
74465;SDS011;62916;50.044;15.938;2023-08-17T12:06:51;2.80;;;2.60;;
74465;SDS011;62916;50.044;15.938;2023-08-17T12:09:23;2.60;;;2.40;;
74465;SDS011;62916;50.044;15.938;2023-08-17T12:12:00;2.60;;;2.40;;
74465;SDS011;62916;50.044;15.938;2023-08-17T12:14:32;2.90;;;2.70;;
74465;SDS011;62916;50.044;15.938;2023-08-17T12:17:04;2.60;;;2.40;;
74465;SDS011;62916;50.044;15.938;2023-08-17T12:19:35;2.50;;;2.30;;
74465;SDS011;62916;50.044;15.938;2023-08-17T12:22:05;2.30;;;2.10;;
74465;SDS011;62916;50.044;15.938;2023-08-17T12:24:38;2.60;;;2.40;;
74465;SDS011;62916;50.044;15.938;2023-08-17T12:27:09;2.40;;;2.20;;
74465;SDS011;62916;50.044;15.938;2023-08-17T12:29:47;2.90;;;2.70;;
74465;SDS011;62916;50.044;15.938;2023-08-17T12:32:19;2.60;;;2.40;;
74465;SDS011;62916;50.044;15.938;2023-08-17T12:34:51;2.10;;;2.00;;
74465;SDS011;62916;50.044;15.938;2023-08-17T12:37:22;2.80;;;2.60;;
74465;SDS011;62916;50.044;15.938;2023-08-17T12:39:52;2.50;;;2.30;;
74465;SDS011;62916;50.044;15.938;2023-08-17T12:42:24;2.40;;;2.20;;
74465;SDS011;62916;50.044;15.938;2023-08-17T12:44:55;2.30;;;2.10;;
74465;SDS011;62916;50.044;15.938;2023-08-17T12:47:26;2.70;;;2.50;;
74465;SDS011;62916;50.044;15.938;2023-08-17T12:50:01;2.50;;;2.40;;
74465;SDS011;62916;50.044;15.938;2023-08-17T12:52:33;2.50;;;2.30;;
74465;SDS011;62916;50.044;15.938;2023-08-17T12:55:04;2.70;;;2.50;;
74465;SDS011;62916;50.044;15.938;2023-08-17T12:57:36;2.60;;;2.40;;
74465;SDS011;62916;50.044;15.938;2023-08-17T13:00:09;2.50;;;2.30;;
74465;SDS011;62916;50.044;15.938;2023-08-17T13:02:41;2.60;;;2.40;;
74465;SDS011;62916;50.044;15.938;2023-08-17T13:05:14;2.40;;;2.20;;
74465;SDS011;62916;50.044;15.938;2023-08-17T13:07:45;3.30;;;3.10;;
74465;SDS011;62916;50.044;15.938;2023-08-17T13:10:16;2.40;;;2.20;;
74465;SDS011;62916;50.044;15.938;2023-08-17T13:12:47;2.50;;;2.30;;
74465;SDS011;62916;50.044;15.938;2023-08-17T13:15:22;2.30;;;2.20;;
74465;SDS011;62916;50.044;15.938;2023-08-17T13:17:53;2.60;;;2.40;;
74465;SDS011;62916;50.044;15.938;2023-08-17T13:20:24;2.40;;;2.30;;
74465;SDS011;62916;50.044;15.938;2023-08-17T13:22:56;2.60;;;2.20;;
74465;SDS011;62916;50.044;15.938;2023-08-17T13:25:27;2.40;;;2.20;;
74465;SDS011;62916;50.044;15.938;2023-08-17T13:27:58;2.40;;;2.20;;
74465;SDS011;62916;50.044;15.938;2023-08-17T13:30:28;2.30;;;2.20;;
74465;SDS011;62916;50.044;15.938;2023-08-17T13:32:59;2.50;;;2.30;;
74465;SDS011;62916;50.044;15.938;2023-08-17T13:35:30;2.20;;;2.00;;
74465;SDS011;62916;50.044;15.938;2023-08-17T13:38:01;2.20;;;2.10;;
74465;SDS011;62916;50.044;15.938;2023-08-17T13:40:33;2.50;;;2.30;;
74465;SDS011;62916;50.044;15.938;2023-08-17T13:43:04;2.50;;;2.30;;
74465;SDS011;62916;50.044;15.938;2023-08-17T13:45:40;2.30;;;2.20;;
74465;SDS011;62916;50.044;15.938;2023-08-17T13:48:10;2.40;;;2.30;;
74465;SDS011;62916;50.044;15.938;2023-08-17T13:50:42;2.30;;;2.20;;
74465;SDS011;62916;50.044;15.938;2023-08-17T13:53:13;2.50;;;2.30;;
74465;SDS011;62916;50.044;15.938;2023-08-17T13:55:44;2.50;;;2.40;;
74465;SDS011;62916;50.044;15.938;2023-08-17T13:58:15;2.70;;;2.50;;
74465;SDS011;62916;50.044;15.938;2023-08-17T14:00:45;2.40;;;2.20;;
74465;SDS011;62916;50.044;15.938;2023-08-17T14:03:16;3.20;;;3.00;;
74465;SDS011;62916;50.044;15.938;2023-08-17T14:05:47;2.50;;;2.30;;
74465;SDS011;62916;50.044;15.938;2023-08-17T14:08:18;2.10;;;2.00;;
74465;SDS011;62916;50.044;15.938;2023-08-17T14:10:49;2.40;;;2.20;;
74465;SDS011;62916;50.044;15.938;2023-08-17T14:13:20;2.00;;;1.80;;
74465;SDS011;62916;50.044;15.938;2023-08-17T14:15:51;2.40;;;2.20;;
74465;SDS011;62916;50.044;15.938;2023-08-17T14:18:24;2.10;;;2.00;;
74465;SDS011;62916;50.044;15.938;2023-08-17T14:20:55;2.10;;;2.00;;
74465;SDS011;62916;50.044;15.938;2023-08-17T14:23:25;2.30;;;2.20;;
74465;SDS011;62916;50.044;15.938;2023-08-17T14:25:57;2.50;;;2.30;;
74465;SDS011;62916;50.044;15.938;2023-08-17T14:28:28;2.30;;;2.10;;
74465;SDS011;62916;50.044;15.938;2023-08-17T14:30:59;2.30;;;2.20;;
74465;SDS011;62916;50.044;15.938;2023-08-17T14:33:30;2.50;;;2.30;;
74465;SDS011;62916;50.044;15.938;2023-08-17T14:36:01;2.50;;;2.40;;
74465;SDS011;62916;50.044;15.938;2023-08-17T14:38:32;1.90;;;1.80;;
74465;SDS011;62916;50.044;15.938;2023-08-17T14:41:03;2.10;;;2.00;;
74465;SDS011;62916;50.044;15.938;2023-08-17T14:43:35;2.20;;;2.00;;
74465;SDS011;62916;50.044;15.938;2023-08-17T14:46:06;2.40;;;2.30;;
74465;SDS011;62916;50.044;15.938;2023-08-17T14:48:41;2.10;;;1.90;;
74465;SDS011;62916;50.044;15.938;2023-08-17T14:51:12;2.80;;;2.70;;
74465;SDS011;62916;50.044;15.938;2023-08-17T14:53:43;2.40;;;2.20;;
74465;SDS011;62916;50.044;15.938;2023-08-17T14:56:14;2.30;;;2.20;;
74465;SDS011;62916;50.044;15.938;2023-08-17T14:58:45;2.30;;;2.10;;
74465;SDS011;62916;50.044;15.938;2023-08-17T15:01:16;2.00;;;1.90;;
74465;SDS011;62916;50.044;15.938;2023-08-17T15:03:47;2.30;;;2.10;;